Terminal Aerodrome Forecast
Issued by NWS New Orleans/Baton Rouge, LA

Home | Current Version | Previous Version | Text Only | Print | Product List | Glossary On
Versions: 1 2 3 4 5 6 7 8 9 10 11 12 13
296
FTUS44 KLIX 232338
TAFBTR
TAF
KBTR 232338Z 2400/2424 19008KT P6SM BKN035
      TEMPO 2400/2402 VRB15KT 2SM TSRA BKN030CB
     FM240200 VRB03KT P6SM SCT035 SCT250
     FM241500 VRB03KT P6SM SCT025 BKN090
      TEMPO 2418/2422 VRB15G25KT 1SM TSRA BKN030CB=

USA.gov is the U.S. government's official web portal to all federal, state and local government web resources and services.